Time;durP1;ratioP1;P1;durP2;ratioP2;P2;SDS_P1;SDS_P2;PMS_P1;PMS_P2;Temp;Humidity;BMP_temperature;BMP_pressure;BME280_temperature;BME280_humidity;BME280_pressure;Samples;Min_cycle;Max_cycle;Signal;HPM_P1;HPM_P2
2024/01/31 00:00:19;;;;;;;14.85;7.35;;;5.90;99.90;;;;;;5058848;28;20033;-54
2024/01/31 00:02:45;;;;;;;13.77;7.72;;;5.90;99.90;;;;;;5056415;28;20086;-56
2024/01/31 00:05:15;;;;;;;12.07;7.70;;;5.80;99.90;;;;;;5043407;28;20068;-62
2024/01/31 00:07:43;;;;;;;11.00;7.45;;;5.80;99.90;;;;;;5063352;28;20097;-58
2024/01/31 00:10:09;;;;;;;15.63;7.55;;;5.80;99.90;;;;;;5063433;28;20027;-59
2024/01/31 00:12:34;;;;;;;12.50;7.38;;;5.80;99.90;;;;;;5057732;28;20119;-59
2024/01/31 00:15:00;;;;;;;12.25;7.47;;;5.80;99.90;;;;;;5060147;28;20154;-59
2024/01/31 00:17:25;;;;;;;13.50;7.53;;;5.90;99.90;;;;;;5062026;28;20040;-59
2024/01/31 00:19:52;;;;;;;13.27;7.22;;;6.00;99.90;;;;;;5062666;28;20037;-59
2024/01/31 00:22:17;;;;;;;14.32;9.02;;;6.10;99.90;;;;;;5062165;28;20102;-59
2024/01/31 00:24:44;;;;;;;11.52;7.65;;;6.20;99.90;;;;;;5060774;28;20025;-59
2024/01/31 00:27:09;;;;;;;14.52;7.72;;;6.20;99.90;;;;;;5063925;28;20548;-58
2024/01/31 00:29:35;;;;;;;16.63;7.78;;;6.30;99.90;;;;;;5065110;28;20034;-60
2024/01/31 00:32:00;;;;;;;12.43;7.45;;;6.30;99.90;;;;;;5060776;28;20461;-59
2024/01/31 00:34:26;;;;;;;10.52;6.82;;;6.30;99.90;;;;;;5057920;28;20036;-60
2024/01/31 00:36:52;;;;;;;15.00;8.00;;;6.40;99.90;;;;;;5062118;28;20339;-59
2024/01/31 00:39:20;;;;;;;11.45;7.05;;;6.40;99.90;;;;;;5061820;28;20439;-59
2024/01/31 00:41:47;;;;;;;12.15;7.90;;;6.50;99.90;;;;;;5062489;28;20017;-60
2024/01/31 00:44:12;;;;;;;13.18;8.25;;;6.60;99.90;;;;;;5064375;28;20276;-60
2024/01/31 00:46:46;;;;;;;12.38;7.38;;;6.60;99.90;;;;;;5059535;28;20111;-59
2024/01/31 00:49:11;;;;;;;11.93;7.03;;;6.70;99.90;;;;;;5059400;28;20032;-59
2024/01/31 00:51:37;;;;;;;11.65;7.38;;;6.70;99.90;;;;;;5065766;28;20393;-60
2024/01/31 00:54:02;;;;;;;12.73;7.55;;;6.80;99.90;;;;;;5064986;28;20021;-59
2024/01/31 00:56:27;;;;;;;13.45;7.07;;;6.80;99.90;;;;;;5063217;28;20039;-59
2024/01/31 00:58:53;;;;;;;11.10;7.45;;;6.80;99.90;;;;;;5052396;28;20134;-59
2024/01/31 01:01:18;;;;;;;14.75;6.35;;;6.90;99.90;;;;;;5069322;28;20326;-59
2024/01/31 01:03:44;;;;;;;13.77;7.30;;;6.90;99.90;;;;;;5059620;28;20032;-60
2024/01/31 01:06:10;;;;;;;12.27;6.80;;;6.90;99.90;;;;;;5063300;28;20029;-59
2024/01/31 01:08:35;;;;;;;11.63;6.47;;;7.00;99.90;;;;;;5063542;28;20099;-59
2024/01/31 01:11:01;;;;;;;12.65;7.00;;;7.00;99.90;;;;;;5066314;28;20488;-59
2024/01/31 01:13:26;;;;;;;11.50;6.50;;;7.00;99.90;;;;;;5063581;28;20029;-59
2024/01/31 01:15:52;;;;;;;9.73;6.35;;;7.10;99.90;;;;;;5065711;28;20401;-60
2024/01/31 01:18:17;;;;;;;11.63;6.53;;;7.10;99.90;;;;;;5043240;28;20028;-60
2024/01/31 01:20:43;;;;;;;12.45;6.47;;;7.10;99.90;;;;;;5065591;28;20029;-60
2024/01/31 01:23:08;;;;;;;10.10;6.65;;;7.20;99.90;;;;;;5063720;28;20039;-60
2024/01/31 01:25:34;;;;;;;11.02;6.45;;;7.30;99.90;;;;;;5066651;28;20047;-59
2024/01/31 01:27:59;;;;;;;12.30;6.25;;;7.30;99.90;;;;;;5065442;28;20590;-59
2024/01/31 01:30:25;;;;;;;11.77;6.57;;;7.40;99.90;;;;;;5069541;28;20021;-59
2024/01/31 01:32:51;;;;;;;8.57;6.47;;;7.40;99.90;;;;;;5071330;28;20396;-59
2024/01/31 01:35:17;;;;;;;10.27;5.80;;;7.50;99.90;;;;;;5066234;28;20024;-60
2024/01/31 01:37:42;;;;;;;10.05;6.15;;;7.50;99.90;;;;;;5062148;28;20051;-59
2024/01/31 01:40:08;;;;;;;8.60;5.78;;;7.50;99.90;;;;;;5061850;28;20546;-59
2024/01/31 01:42:38;;;;;;;11.30;6.55;;;7.60;99.90;;;;;;5061612;28;20485;-59
2024/01/31 01:45:04;;;;;;;10.23;5.68;;;7.60;99.90;;;;;;5061837;28;20040;-59
2024/01/31 01:47:29;;;;;;;8.32;5.43;;;7.60;99.90;;;;;;5061975;28;20087;-60
2024/01/31 01:49:55;;;;;;;9.50;5.22;;;7.70;99.90;;;;;;5063586;28;20020;-60
2024/01/31 01:52:21;;;;;;;9.65;4.70;;;7.70;99.90;;;;;;5061603;28;20116;-60
2024/01/31 01:54:46;;;;;;;8.07;5.28;;;7.70;99.90;;;;;;5066195;28;20033;-60
2024/01/31 01:57:13;;;;;;;9.77;4.72;;;7.80;99.90;;;;;;5066432;28;20024;-59
2024/01/31 01:59:38;;;;;;;6.40;4.70;;;7.80;99.90;;;;;;5061301;28;20098;-59
2024/01/31 02:02:04;;;;;;;6.47;4.50;;;7.80;99.90;;;;;;5063141;28;20020;-59
2024/01/31 02:04:30;;;;;;;10.07;4.97;;;7.80;99.90;;;;;;5059365;28;20041;-60
2024/01/31 02:06:56;;;;;;;8.70;4.30;;;7.80;99.90;;;;;;5065455;28;20067;-60
2024/01/31 02:09:22;;;;;;;7.30;4.72;;;7.80;99.90;;;;;;5061468;28;20544;-59
2024/01/31 02:11:47;;;;;;;7.70;4.15;;;7.80;99.70;;;;;;5061276;28;20041;-60
2024/01/31 02:14:13;;;;;;;7.55;5.07;;;7.90;99.60;;;;;;5061194;28;20016;-59
2024/01/31 02:16:38;;;;;;;8.85;4.55;;;7.90;99.50;;;;;;5063036;28;20036;-60
2024/01/31 02:19:04;;;;;;;7.50;4.45;;;7.90;99.30;;;;;;5059665;28;20433;-60
2024/01/31 02:21:31;;;;;;;9.38;4.35;;;7.90;99.10;;;;;;5063293;28;20035;-60
2024/01/31 02:23:56;;;;;;;5.35;3.92;;;7.90;99.10;;;;;;5066369;28;20029;-60
2024/01/31 02:26:21;;;;;;;8.35;3.78;;;7.90;99.00;;;;;;5069490;28;20030;-60
2024/01/31 02:28:47;;;;;;;6.90;4.20;;;7.90;98.80;;;;;;5065848;28;20428;-60
2024/01/31 02:31:12;;;;;;;5.15;3.42;;;7.90;98.60;;;;;;5054214;28;20074;-59
2024/01/31 02:33:38;;;;;;;5.50;3.55;;;8.00;98.30;;;;;;5070888;28;20412;-60
2024/01/31 02:36:04;;;;;;;6.78;3.95;;;8.00;98.10;;;;;;5060928;28;20109;-59
2024/01/31 02:38:29;;;;;;;6.57;3.80;;;8.00;97.90;;;;;;5060181;28;23400;-59
2024/01/31 02:40:55;;;;;;;8.00;3.90;;;8.00;97.80;;;;;;5051175;28;20429;-60
2024/01/31 02:43:20;;;;;;;8.15;3.63;;;8.00;97.60;;;;;;5060571;28;20029;-60
2024/01/31 02:45:46;;;;;;;5.00;3.67;;;8.00;97.50;;;;;;5060923;28;20029;-59
2024/01/31 02:48:12;;;;;;;5.55;3.55;;;8.00;97.40;;;;;;5060323;28;20027;-59
2024/01/31 02:50:38;;;;;;;4.25;2.95;;;8.10;97.30;;;;;;5062633;28;20718;-60
2024/01/31 02:53:03;;;;;;;6.03;3.38;;;8.10;97.10;;;;;;5060262;28;20074;-60
2024/01/31 02:55:29;;;;;;;4.63;2.67;;;8.10;96.90;;;;;;5060640;28;20021;-60
2024/01/31 02:57:54;;;;;;;2.97;2.40;;;8.10;96.70;;;;;;5064409;28;20434;-60
2024/01/31 03:00:20;;;;;;;4.40;2.13;;;8.10;96.50;;;;;;5060213;28;20075;-60
2024/01/31 03:02:45;;;;;;;3.78;2.00;;;8.10;96.50;;;;;;5040690;28;20032;-59
2024/01/31 03:05:11;;;;;;;3.28;2.08;;;8.10;96.40;;;;;;5062024;28;20058;-59
2024/01/31 03:07:37;;;;;;;2.58;1.80;;;8.20;96.40;;;;;;5060377;28;20078;-60
2024/01/31 03:10:03;;;;;;;7.13;2.10;;;8.10;96.50;;;;;;5064648;28;20040;-59
2024/01/31 03:12:28;;;;;;;2.78;1.52;;;8.20;96.80;;;;;;5064774;28;20120;-59
2024/01/31 03:14:54;;;;;;;1.85;1.65;;;8.10;96.50;;;;;;5068195;28;20213;-59
2024/01/31 03:17:20;;;;;;;3.25;2.08;;;8.10;96.60;;;;;;5064082;28;20093;-59
2024/01/31 03:19:45;;;;;;;3.42;1.95;;;8.10;96.70;;;;;;5069914;28;20103;-60
2024/01/31 03:22:10;;;;;;;2.65;1.60;;;8.20;96.70;;;;;;5064128;28;20607;-60
2024/01/31 03:24:37;;;;;;;2.10;1.50;;;8.10;96.70;;;;;;5063908;28;20024;-60
2024/01/31 03:27:03;;;;;;;3.97;1.85;;;8.10;96.80;;;;;;5060986;28;20060;-59
2024/01/31 03:29:29;;;;;;;1.80;1.58;;;8.10;96.80;;;;;;5060826;28;20032;-60
2024/01/31 03:31:54;;;;;;;2.05;1.63;;;8.10;96.80;;;;;;5065394;28;20044;-60
2024/01/31 03:34:20;;;;;;;2.17;1.30;;;8.10;96.90;;;;;;5057329;28;20413;-60
2024/01/31 03:36:46;;;;;;;2.03;1.42;;;8.10;97.00;;;;;;5041726;28;20047;-60
2024/01/31 03:39:12;;;;;;;2.22;1.70;;;8.00;97.00;;;;;;5059695;28;20039;-60
2024/01/31 03:41:45;;;;;;;1.88;1.35;;;8.10;97.00;;;;;;5063471;28;20013;-59
2024/01/31 03:44:11;;;;;;;2.25;1.42;;;8.10;97.00;;;;;;5059624;28;20520;-59
2024/01/31 03:46:36;;;;;;;2.90;1.73;;;8.10;97.10;;;;;;5045307;28;20029;-60
2024/01/31 03:49:01;;;;;;;2.08;1.40;;;8.10;97.10;;;;;;5059189;28;20024;-59
2024/01/31 03:51:27;;;;;;;1.83;1.40;;;8.10;97.20;;;;;;5061272;28;20203;-60
2024/01/31 03:53:53;;;;;;;2.08;1.20;;;8.00;97.30;;;;;;5059166;28;20021;-60
2024/01/31 03:56:18;;;;;;;1.55;1.20;;;8.10;97.40;;;;;;5059235;28;20020;-60
2024/01/31 03:58:44;;;;;;;1.98;1.33;;;8.00;97.30;;;;;;5059075;28;20053;-60
2024/01/31 04:01:15;;;;;;;2.42;1.67;;;8.00;97.40;;;;;;5066622;28;20020;-60
2024/01/31 04:03:43;;;;;;;2.85;1.75;;;8.00;97.40;;;;;;5054507;28;20397;-61
2024/01/31 04:06:09;;;;;;;3.88;1.85;;;8.00;97.60;;;;;;5058946;28;20018;-59
2024/01/31 04:08:34;;;;;;;2.22;1.70;;;8.00;97.80;;;;;;5061046;28;20129;-60
2024/01/31 04:11:00;;;;;;;3.38;1.50;;;8.00;97.70;;;;;;5060783;28;20029;-59
2024/01/31 04:13:25;;;;;;;1.70;1.30;;;8.00;97.60;;;;;;5059006;28;20094;-60
2024/01/31 04:15:51;;;;;;;1.60;1.40;;;8.00;97.70;;;;;;5058833;28;20028;-61
2024/01/31 04:18:17;;;;;;;1.90;1.35;;;7.90;97.70;;;;;;5058941;28;20545;-59
2024/01/31 04:20:43;;;;;;;1.40;1.30;;;7.90;97.90;;;;;;5049155;28;20028;-59
2024/01/31 04:23:08;;;;;;;3.55;1.10;;;7.90;97.80;;;;;;5058797;28;20029;-59
2024/01/31 04:25:34;;;;;;;1.80;1.40;;;7.90;97.90;;;;;;5060928;28;20032;-60
2024/01/31 04:28:00;;;;;;;2.45;1.30;;;7.90;98.10;;;;;;5063080;28;20451;-59
2024/01/31 04:30:25;;;;;;;1.80;1.25;;;7.90;98.00;;;;;;5058477;28;20060;-60
2024/01/31 04:32:51;;;;;;;2.35;1.17;;;7.90;98.10;;;;;;5063234;28;20037;-59
2024/01/31 04:35:16;;;;;;;2.03;1.10;;;7.80;98.10;;;;;;5062629;28;20035;-59
2024/01/31 04:37:42;;;;;;;2.45;1.20;;;7.80;98.10;;;;;;5067000;28;20050;-59
2024/01/31 04:40:08;;;;;;;1.30;1.02;;;7.80;98.20;;;;;;5067731;28;20381;-60
2024/01/31 04:42:34;;;;;;;1.45;1.17;;;7.70;98.30;;;;;;5063313;28;20548;-60
2024/01/31 04:45:00;;;;;;;2.78;1.05;;;7.70;98.20;;;;;;5067200;28;20108;-60
2024/01/31 04:47:25;;;;;;;1.00;0.90;;;7.70;98.20;;;;;;5062207;28;20293;-60
2024/01/31 04:50:01;;;;;;;1.08;0.95;;;7.70;98.30;;;;;;5058694;28;20024;-59
2024/01/31 04:52:26;;;;;;;1.63;1.00;;;7.60;98.30;;;;;;5058376;28;20481;-59
2024/01/31 04:54:52;;;;;;;1.38;0.90;;;7.60;98.30;;;;;;5064667;28;20035;-60
2024/01/31 04:57:18;;;;;;;1.27;0.93;;;7.50;98.40;;;;;;5062421;28;20027;-60
2024/01/31 04:59:44;;;;;;;0.60;0.60;;;7.50;98.20;;;;;;5045686;28;20044;-60
2024/01/31 05:02:09;;;;;;;2.00;0.70;;;7.50;98.10;;;;;;5054886;28;20493;-59
2024/01/31 05:04:36;;;;;;;0.55;0.52;;;7.50;97.90;;;;;;5062521;28;20051;-60
2024/01/31 05:07:02;;;;;;;1.58;0.65;;;7.40;97.80;;;;;;5062561;28;20024;-59
2024/01/31 05:09:27;;;;;;;0.60;0.38;;;7.50;97.90;;;;;;5062119;28;20017;-59
2024/01/31 05:11:52;;;;;;;1.80;0.50;;;7.40;97.60;;;;;;5062101;28;20377;-59
2024/01/31 05:14:18;;;;;;;0.63;0.50;;;7.40;97.60;;;;;;5064267;28;20116;-60
2024/01/31 05:16:44;;;;;;;3.50;0.47;;;7.40;97.70;;;;;;5062065;28;20103;-59
2024/01/31 05:19:11;;;;;;;0.82;0.57;;;7.40;97.80;;;;;;5062338;28;20032;-59
2024/01/31 05:21:46;;;;;;;0.80;0.52;;;7.40;97.80;;;;;;5070727;28;20028;-60
2024/01/31 05:24:12;;;;;;;0.55;0.55;;;7.40;98.00;;;;;;5068518;28;20027;-60
2024/01/31 05:26:37;;;;;;;0.80;0.80;;;7.40;98.70;;;;;;5067894;28;20021;-60
2024/01/31 05:29:03;;;;;;;0.82;0.40;;;7.30;98.70;;;;;;5066503;28;20031;-60
2024/01/31 05:31:28;;;;;;;0.40;0.40;;;7.30;99.10;;;;;;5066017;28;20051;-60
2024/01/31 05:33:54;;;;;;;0.52;0.38;;;7.30;99.70;;;;;;5071616;28;20029;-59
2024/01/31 05:36:19;;;;;;;1.10;0.60;;;7.30;99.90;;;;;;5069074;28;20040;-59
2024/01/31 05:38:45;;;;;;;0.38;0.30;;;7.20;99.90;;;;;;5068572;28;20036;-59
2024/01/31 05:41:12;;;;;;;1.08;0.30;;;7.10;99.90;;;;;;5067310;28;20032;-59
2024/01/31 05:43:37;;;;;;;1.23;0.40;;;7.10;99.90;;;;;;5068192;28;20150;-60
2024/01/31 05:46:03;;;;;;;2.70;0.60;;;7.00;99.90;;;;;;5069822;28;20099;-60
2024/01/31 05:48:29;;;;;;;3.35;0.63;;;6.90;99.90;;;;;;5067584;28;20020;-59
2024/01/31 05:50:54;;;;;;;0.30;0.30;;;6.90;99.90;;;;;;5070358;28;20021;-60
2024/01/31 05:53:20;;;;;;;0.65;0.65;;;6.90;99.90;;;;;;5065627;28;20035;-60
2024/01/31 05:55:45;;;;;;;1.25;0.50;;;6.80;99.90;;;;;;5065904;28;20517;-59
2024/01/31 05:58:11;;;;;;;0.90;0.30;;;6.80;99.90;;;;;;5070865;28;20029;-60
2024/01/31 06:00:37;;;;;;;1.17;0.30;;;6.70;99.90;;;;;;5069046;28;20443;-59
2024/01/31 06:03:03;;;;;;;0.10;0.10;;;6.70;99.90;;;;;;5065284;28;20021;-59
2024/01/31 06:05:28;;;;;;;0.30;0.30;;;6.70;99.90;;;;;;5061541;28;20110;-60
2024/01/31 06:07:54;;;;;;;1.20;0.30;;;6.60;99.90;;;;;;5061459;28;20043;-63
2024/01/31 06:10:20;;;;;;;0.45;0.45;;;6.60;99.90;;;;;;5055309;28;20034;-65
2024/01/31 06:12:45;;;;;;;1.17;0.38;;;6.60;99.90;;;;;;5065729;28;20040;-65
2024/01/31 06:15:11;;;;;;;0.80;0.20;;;6.50;99.90;;;;;;5066798;28;20027;-64
2024/01/31 06:17:38;;;;;;;0.70;0.30;;;6.40;99.90;;;;;;5071410;28;20042;-64
2024/01/31 06:20:04;;;;;;;0.38;0.20;;;6.40;99.90;;;;;;5068228;28;20020;-64
2024/01/31 06:22:30;;;;;;;0.55;0.10;;;6.40;99.90;;;;;;5065582;28;20031;-64
2024/01/31 06:24:56;;;;;;;2.05;0.30;;;6.30;99.90;;;;;;5069056;28;20028;-64
2024/01/31 06:27:21;;;;;;;0.40;0.25;;;6.40;99.90;;;;;;5066309;28;20024;-64
2024/01/31 06:29:47;;;;;;;0.80;0.60;;;6.30;99.90;;;;;;5067593;28;20029;-64
2024/01/31 06:32:13;;;;;;;0.55;0.30;;;6.30;99.90;;;;;;5068388;28;20028;-64
2024/01/31 06:34:38;;;;;;;0.70;0.38;;;6.30;99.90;;;;;;5070219;28;20093;-65
2024/01/31 06:37:04;;;;;;;0.75;0.40;;;6.30;99.90;;;;;;5068139;28;20032;-65
2024/01/31 06:39:29;;;;;;;1.00;0.30;;;6.30;99.90;;;;;;5066059;28;20028;-65
2024/01/31 06:41:55;;;;;;;0.25;0.20;;;6.30;99.90;;;;;;5068665;28;20044;-64
2024/01/31 06:44:20;;;;;;;2.03;0.82;;;6.30;99.90;;;;;;5065192;28;20020;-65
2024/01/31 06:46:48;;;;;;;0.40;0.20;;;6.30;99.90;;;;;;5067823;28;20040;-64
2024/01/31 06:49:14;;;;;;;0.32;0.20;;;6.30;99.90;;;;;;5068688;28;20232;-64
2024/01/31 06:51:40;;;;;;;0.20;0.20;;;6.30;99.90;;;;;;5048049;28;20131;-64
2024/01/31 06:54:06;;;;;;;0.98;0.20;;;6.30;99.90;;;;;;5070835;28;20251;-65
2024/01/31 06:56:32;;;;;;;2.38;0.68;;;6.30;99.90;;;;;;5066058;28;20036;-65
2024/01/31 06:58:58;;;;;;;0.20;0.20;;;6.30;99.90;;;;;;5062571;28;20037;-64
2024/01/31 07:01:23;;;;;;;0.63;0.40;;;6.30;99.90;;;;;;5055830;28;20025;-64
2024/01/31 07:03:49;;;;;;;1.83;0.40;;;6.20;99.90;;;;;;5065430;28;20020;-65
2024/01/31 07:06:16;;;;;;;0.70;0.30;;;6.20;99.90;;;;;;5042784;28;20020;-64
2024/01/31 07:08:41;;;;;;;0.57;0.40;;;6.20;99.90;;;;;;5063800;28;20103;-66
2024/01/31 07:11:08;;;;;;;0.85;0.30;;;6.20;99.90;;;;;;5065374;28;20307;-65
2024/01/31 07:13:38;;;;;;;1.38;0.75;;;6.20;99.90;;;;;;5062804;28;20272;-64
2024/01/31 07:16:09;;;;;;;1.45;0.60;;;6.20;99.90;;;;;;5051087;28;20507;-64
2024/01/31 07:18:41;;;;;;;1.27;0.40;;;6.20;99.90;;;;;;5064568;28;20162;-64
2024/01/31 07:21:10;;;;;;;0.30;0.30;;;6.20;99.90;;;;;;5065537;28;20404;-63
2024/01/31 07:23:36;;;;;;;2.63;0.40;;;6.20;99.90;;;;;;5065251;28;20278;-63
2024/01/31 07:26:02;;;;;;;0.77;0.40;;;6.20;99.60;;;;;;5060156;28;20175;-64
2024/01/31 07:28:28;;;;;;;0.63;0.35;;;6.20;99.40;;;;;;5060575;28;20111;-64
2024/01/31 07:30:53;;;;;;;0.55;0.40;;;6.20;99.00;;;;;;5064951;28;20515;-63
2024/01/31 07:33:19;;;;;;;0.63;0.32;;;6.20;98.50;;;;;;5063288;28;20611;-63
2024/01/31 07:35:45;;;;;;;1.00;0.30;;;6.20;98.50;;;;;;5063852;28;20043;-63
2024/01/31 07:38:11;;;;;;;0.47;0.30;;;6.20;98.50;;;;;;5067497;28;20023;-63
2024/01/31 07:40:37;;;;;;;1.80;0.30;;;6.20;98.40;;;;;;5063976;28;20380;-64
2024/01/31 07:43:03;;;;;;;0.98;0.40;;;6.20;98.30;;;;;;5065250;28;20035;-64
2024/01/31 07:45:28;;;;;;;0.77;0.35;;;6.20;98.30;;;;;;5068882;28;20213;-63
2024/01/31 07:47:54;;;;;;;0.68;0.30;;;6.20;98.30;;;;;;5058442;28;20442;-63
2024/01/31 07:50:19;;;;;;;1.17;0.40;;;6.30;98.20;;;;;;5062242;28;20119;-65
2024/01/31 07:52:45;;;;;;;0.52;0.45;;;6.30;98.40;;;;;;5066378;28;20054;-64
2024/01/31 07:55:11;;;;;;;2.15;0.40;;;6.30;98.40;;;;;;5062763;28;20408;-64
2024/01/31 07:57:36;;;;;;;1.00;0.30;;;6.20;98.30;;;;;;5054181;28;20093;-63
2024/01/31 08:00:06;;;;;;;0.95;0.55;;;6.20;98.30;;;;;;5060112;28;20024;-64
2024/01/31 08:02:31;;;;;;;4.00;0.80;;;6.20;98.30;;;;;;5060597;28;20507;-63
2024/01/31 08:04:58;;;;;;;0.88;0.60;;;6.30;98.30;;;;;;5058178;28;20044;-63
2024/01/31 08:07:24;;;;;;;0.40;0.40;;;6.20;98.40;;;;;;5058541;28;20031;-64
2024/01/31 08:09:50;;;;;;;1.20;0.50;;;6.30;98.70;;;;;;5058369;28;20025;-63
2024/01/31 08:12:15;;;;;;;0.82;0.55;;;6.20;99.10;;;;;;5051720;28;20413;-64
2024/01/31 08:14:41;;;;;;;1.30;0.60;;;6.20;99.80;;;;;;5062788;28;20021;-63
2024/01/31 08:17:07;;;;;;;1.85;0.40;;;6.20;99.90;;;;;;5067689;28;20020;-63
2024/01/31 08:19:34;;;;;;;2.38;0.52;;;6.20;99.90;;;;;;5062977;28;20017;-63
2024/01/31 08:21:59;;;;;;;1.40;0.63;;;6.20;99.90;;;;;;5058020;28;20585;-63
2024/01/31 08:24:25;;;;;;;3.15;0.47;;;6.20;99.90;;;;;;5058848;28;20064;-64
2024/01/31 08:26:51;;;;;;;0.77;0.52;;;6.20;99.90;;;;;;5063557;28;20492;-63
2024/01/31 08:29:16;;;;;;;1.17;0.70;;;6.10;99.90;;;;;;5063399;28;20074;-64
2024/01/31 08:31:42;;;;;;;2.03;0.75;;;6.10;99.90;;;;;;5060384;28;20033;-64
2024/01/31 08:34:07;;;;;;;1.00;0.57;;;6.10;99.90;;;;;;5058231;28;20038;-64
2024/01/31 08:36:32;;;;;;;1.00;0.70;;;6.00;99.90;;;;;;5057439;28;20052;-64
2024/01/31 08:38:58;;;;;;;1.70;0.95;;;6.00;99.90;;;;;;5058042;28;20041;-64
2024/01/31 08:41:23;;;;;;;1.80;1.25;;;6.00;99.90;;;;;;5062306;28;20082;-63
2024/01/31 08:43:49;;;;;;;1.75;0.88;;;5.90;99.90;;;;;;5064709;28;20025;-64
2024/01/31 08:46:14;;;;;;;2.38;1.20;;;5.90;99.90;;;;;;5068639;28;20522;-64
2024/01/31 08:48:40;;;;;;;1.55;1.08;;;5.90;99.90;;;;;;5064973;28;20024;-64
2024/01/31 08:51:07;;;;;;;6.68;1.00;;;5.90;99.90;;;;;;5063894;28;20155;-64
2024/01/31 08:53:33;;;;;;;1.20;0.93;;;6.10;99.90;;;;;;5064646;28;20496;-63
2024/01/31 08:55:58;;;;;;;1.15;0.85;;;6.20;99.90;;;;;;5063324;28;20023;-64
2024/01/31 08:58:24;;;;;;;1.92;0.90;;;6.40;99.90;;;;;;5064443;28;20416;-63
2024/01/31 09:00:49;;;;;;;3.42;0.70;;;6.50;99.90;;;;;;5062631;28;20039;-63
2024/01/31 09:03:15;;;;;;;2.08;0.85;;;6.60;99.10;;;;;;5060886;28;20516;-64
2024/01/31 09:05:41;;;;;;;0.63;0.52;;;6.60;99.10;;;;;;5053998;28;20032;-64
2024/01/31 09:08:06;;;;;;;1.48;0.88;;;6.70;98.40;;;;;;5058465;28;20025;-65
2024/01/31 09:10:32;;;;;;;2.03;0.80;;;6.70;97.50;;;;;;5057739;28;20028;-64
2024/01/31 09:12:57;;;;;;;1.23;0.60;;;6.70;96.70;;;;;;5057986;28;20036;-63
2024/01/31 09:15:23;;;;;;;2.88;0.60;;;6.80;96.70;;;;;;5057687;28;20070;-64
2024/01/31 09:17:48;;;;;;;1.25;0.50;;;6.80;96.80;;;;;;5059630;28;20029;-63
2024/01/31 09:20:14;;;;;;;0.80;0.60;;;6.80;96.70;;;;;;5057980;28;20048;-63
2024/01/31 09:22:40;;;;;;;1.85;0.65;;;6.80;96.50;;;;;;5063643;28;20083;-64
2024/01/31 09:25:06;;;;;;;2.03;0.50;;;6.90;96.50;;;;;;5060644;28;20025;-64
2024/01/31 09:27:32;;;;;;;3.00;0.50;;;6.80;96.40;;;;;;5059913;28;20042;-63
2024/01/31 09:29:57;;;;;;;2.17;0.35;;;6.90;96.80;;;;;;5057482;28;20059;-63
2024/01/31 09:32:23;;;;;;;0.60;0.30;;;6.80;96.10;;;;;;5059591;28;20035;-64
2024/01/31 09:34:48;;;;;;;0.52;0.50;;;6.80;96.20;;;;;;5061908;28;20039;-64
2024/01/31 09:37:14;;;;;;;4.60;1.25;;;6.70;96.40;;;;;;5062049;28;20487;-64
2024/01/31 09:39:39;;;;;;;1.50;0.60;;;6.70;96.40;;;;;;5057864;28;20071;-65
2024/01/31 09:42:05;;;;;;;1.17;0.40;;;6.70;96.40;;;;;;5062713;28;20031;-63
2024/01/31 09:44:32;;;;;;;0.93;0.70;;;6.70;96.10;;;;;;5065140;28;20029;-64
2024/01/31 09:46:59;;;;;;;2.40;0.50;;;6.70;96.30;;;;;;5063453;28;20100;-65
2024/01/31 09:49:24;;;;;;;0.47;0.40;;;6.70;96.10;;;;;;5068890;28;20050;-64
2024/01/31 09:51:57;;;;;;;1.05;0.50;;;6.80;96.00;;;;;;5066855;28;20043;-64
2024/01/31 09:54:24;;;;;;;0.43;0.43;;;7.00;95.50;;;;;;5067620;28;20029;-63
2024/01/31 09:56:49;;;;;;;0.93;0.50;;;7.20;95.00;;;;;;5066242;28;20036;-63
2024/01/31 09:59:15;;;;;;;1.15;0.52;;;7.30;93.20;;;;;;5069146;28;20052;-63
2024/01/31 10:01:42;;;;;;;1.52;0.70;;;7.50;92.80;;;;;;5060770;28;20028;-65
2024/01/31 10:04:07;;;;;;;0.85;0.40;;;7.70;92.30;;;;;;5067964;28;20024;-64
2024/01/31 10:06:33;;;;;;;1.38;0.55;;;7.80;92.10;;;;;;5066963;28;20397;-65
2024/01/31 10:08:58;;;;;;;1.20;0.40;;;8.10;91.00;;;;;;5068357;28;20481;-66
2024/01/31 10:11:27;;;;;;;0.38;0.38;;;8.30;89.80;;;;;;5065168;28;20166;-65
2024/01/31 10:13:53;;;;;;;0.90;0.40;;;8.50;87.50;;;;;;5065887;28;20377;-65
2024/01/31 10:16:19;;;;;;;1.95;0.50;;;8.60;87.50;;;;;;5064348;28;20030;-65
2024/01/31 10:18:44;;;;;;;2.05;0.60;;;8.60;85.40;;;;;;5068531;28;20116;-64
2024/01/31 10:21:10;;;;;;;1.55;0.50;;;8.70;87.20;;;;;;5068281;28;20121;-63
2024/01/31 10:23:36;;;;;;;1.38;0.52;;;8.80;85.50;;;;;;5066436;28;20446;-65
2024/01/31 10:26:02;;;;;;;0.90;0.50;;;8.70;85.70;;;;;;5067327;28;20097;-64
2024/01/31 10:28:28;;;;;;;1.67;0.57;;;8.70;85.30;;;;;;5064839;28;20059;-65
2024/01/31 10:30:55;;;;;;;0.73;0.40;;;8.80;84.30;;;;;;5064780;28;20150;-64
2024/01/31 10:33:22;;;;;;;3.72;0.82;;;9.10;83.90;;;;;;5063727;28;20035;-65
2024/01/31 10:35:48;;;;;;;0.70;0.45;;;9.30;83.60;;;;;;5067842;28;20024;-64
2024/01/31 10:38:14;;;;;;;0.57;0.38;;;9.30;79.60;;;;;;5055792;28;20572;-66
2024/01/31 10:40:41;;;;;;;1.33;0.68;;;9.30;81.10;;;;;;5068403;28;20136;-66
2024/01/31 10:43:08;;;;;;;0.55;0.50;;;9.40;79.40;;;;;;5067428;28;20020;-64
2024/01/31 10:45:34;;;;;;;0.93;0.50;;;9.40;78.10;;;;;;5064377;28;20427;-65
2024/01/31 10:48:02;;;;;;;2.67;0.60;;;9.40;78.80;;;;;;5067586;28;20036;-61
2024/01/31 10:50:28;;;;;;;2.75;0.60;;;9.20;76.50;;;;;;5065713;28;20024;-65
2024/01/31 10:52:54;;;;;;;0.93;0.45;;;9.20;76.20;;;;;;5062457;28;20632;-65
2024/01/31 10:55:22;;;;;;;1.00;0.50;;;9.10;75.10;;;;;;5065968;28;20070;-64
2024/01/31 10:57:48;;;;;;;0.70;0.55;;;8.90;76.30;;;;;;5062319;28;20020;-65
2024/01/31 11:00:29;;;;;;;1.13;0.40;;;8.80;76.20;;;;;;5066236;28;20407;-66
2024/01/31 11:02:56;;;;;;;1.35;0.60;;;8.70;74.90;;;;;;5038061;28;20027;-65
2024/01/31 11:05:24;;;;;;;0.40;0.20;;;8.70;75.50;;;;;;5051033;28;20025;-64
2024/01/31 11:07:50;;;;;;;1.48;0.30;;;8.50;74.40;;;;;;5060080;28;20511;-63
2024/01/31 11:10:17;;;;;;;0.20;0.20;;;8.50;75.30;;;;;;5061204;28;20021;-65
2024/01/31 11:12:43;;;;;;;0.82;0.52;;;8.60;74.80;;;;;;5059746;28;20028;-65
2024/01/31 11:15:08;;;;;;;1.27;0.43;;;8.60;76.10;;;;;;5059484;28;20118;-64
2024/01/31 11:17:35;;;;;;;1.13;0.55;;;8.40;74.10;;;;;;5059656;28;20051;-64
2024/01/31 11:20:01;;;;;;;0.88;0.40;;;8.30;74.70;;;;;;5045417;28;20485;-63
2024/01/31 11:22:28;;;;;;;1.85;0.50;;;8.20;75.20;;;;;;5059448;28;20111;-65
2024/01/31 11:24:56;;;;;;;1.08;0.30;;;8.10;75.40;;;;;;5051723;28;20016;-64
2024/01/31 11:27:22;;;;;;;1.27;0.50;;;8.20;75.60;;;;;;5057081;28;20499;-65
2024/01/31 11:29:50;;;;;;;2.05;0.50;;;8.10;75.90;;;;;;5067559;28;20028;-65
2024/01/31 11:32:22;;;;;;;3.20;0.80;;;8.00;75.90;;;;;;5062819;28;20198;-64
2024/01/31 11:34:59;;;;;;;0.85;0.60;;;7.90;75.80;;;;;;5063645;28;20056;-64
2024/01/31 11:37:25;;;;;;;2.30;0.68;;;7.80;76.20;;;;;;5065480;28;20039;-64
2024/01/31 11:39:50;;;;;;;2.08;0.50;;;7.70;76.40;;;;;;5069049;28;20400;-64
2024/01/31 11:42:16;;;;;;;0.98;0.55;;;7.70;76.60;;;;;;5063221;28;20048;-65
2024/01/31 11:44:41;;;;;;;1.83;0.77;;;7.60;76.90;;;;;;5059648;28;20040;-64
2024/01/31 11:47:07;;;;;;;3.15;0.70;;;7.50;76.80;;;;;;5042000;28;20086;-63
2024/01/31 11:49:32;;;;;;;0.98;0.47;;;7.40;77.20;;;;;;5067462;28;20052;-64
2024/01/31 11:51:58;;;;;;;2.45;0.70;;;7.40;77.80;;;;;;5060526;28;20036;-64
2024/01/31 11:54:23;;;;;;;0.75;0.50;;;7.30;77.80;;;;;;5043758;28;20052;-64
2024/01/31 11:56:50;;;;;;;1.80;0.80;;;7.30;78.20;;;;;;5059119;28;20165;-64
2024/01/31 11:59:16;;;;;;;2.20;0.93;;;7.20;78.60;;;;;;5062641;28;20126;-63
2024/01/31 12:01:42;;;;;;;2.53;1.00;;;7.10;78.80;;;;;;5059574;28;20124;-63
2024/01/31 12:04:07;;;;;;;3.50;1.10;;;7.10;79.20;;;;;;5065152;28;20032;-64
2024/01/31 12:06:33;;;;;;;3.78;1.08;;;7.00;79.30;;;;;;5066253;28;20028;-64
2024/01/31 12:08:59;;;;;;;4.35;1.10;;;7.00;79.50;;;;;;5068704;28;20024;-64
2024/01/31 12:11:24;;;;;;;4.28;1.67;;;6.90;79.20;;;;;;5065396;28;20027;-55
2024/01/31 12:13:50;;;;;;;3.20;1.15;;;7.00;79.40;;;;;;5064309;28;20078;-52
2024/01/31 12:16:16;;;;;;;3.50;1.10;;;6.90;79.20;;;;;;5064232;28;20640;-53
2024/01/31 12:18:41;;;;;;;3.70;0.95;;;6.90;79.20;;;;;;5063471;28;20017;-56
2024/01/31 12:21:10;;;;;;;9.30;2.25;;;6.90;79.40;;;;;;5065642;28;20028;-55
2024/01/31 12:23:36;;;;;;;6.18;1.25;;;7.00;79.50;;;;;;5066523;28;20031;-54
2024/01/31 12:26:02;;;;;;;5.78;1.38;;;6.90;79.30;;;;;;5063947;28;20659;-56
2024/01/31 12:28:28;;;;;;;2.47;1.20;;;7.00;79.30;;;;;;5066338;28;20070;-57
2024/01/31 12:30:53;;;;;;;6.55;1.30;;;7.00;79.20;;;;;;5064862;28;20024;-56
2024/01/31 12:33:20;;;;;;;5.90;1.23;;;6.90;79.20;;;;;;5064442;28;20048;-54
2024/01/31 12:35:46;;;;;;;4.05;1.10;;;6.90;79.20;;;;;;5064405;28;20037;-52
2024/01/31 12:38:12;;;;;;;4.30;1.30;;;7.00;79.30;;;;;;5064543;28;20425;-55
2024/01/31 12:40:38;;;;;;;4.28;1.00;;;7.00;78.90;;;;;;5062651;28;20024;-56
2024/01/31 12:43:04;;;;;;;4.68;1.50;;;6.90;78.70;;;;;;5064361;28;20028;-57
2024/01/31 12:45:31;;;;;;;3.58;1.13;;;6.90;78.40;;;;;;5059917;28;20039;-53
2024/01/31 12:47:57;;;;;;;5.45;1.38;;;6.90;78.70;;;;;;5066446;28;20484;-55